(°C)
(°C)
-1°
WSW
غرب
غرب
غرب
غرب
غرب
غرب
(كم/سا)
8-13
10-15
13-17
16-21
20-27
22-30
24-32
(مم)
0
0
0
0
0
0
0
(%)
0
0
0
0
0
0
0

مستوى ارتفاع الشمس

/ 6.6°
sun-icon
UV 1
08:11
18:24
قمر المساء (233°)
20:38
13:13

متر ل51.15°شمال 51.54°شرق (UARR)

الوقت الشروط درجة الحرارة/
نقطة الندى
رياح مجال رؤية حالة الطقس غيوم الضغط تغيير خام
VFR 2°C / 2°C 230º 4kt >10km - Clouds and Visibility OK 1015 No Significant change UARR 250330Z 23002MPS CAVOK 02/02 Q1015 R22/CLRD70 NOSIG RMK QFE757/1010
VFR 2°C / 2°C 200º 6kt >10km - Clouds and Visibility OK 1015 No Significant change UARR 250300Z 20003MPS CAVOK 02/02 Q1015 R22/CLRD70 NOSIG RMK QFE757/1010
VFR 3°C / 2°C 240º 4kt >10km - Clouds and Visibility OK 1015 No Significant change. Runway 22: Wet or puddles, 1-10% contamination with 2mm, friction coefficient 0.65. UARR 250230Z 24002MPS CAVOK 03/02 Q1015 R22/210265 NOSIG RMK QFE757/1010
VFR 3°C / 2°C 220º 2kt >10km - Clouds and Visibility OK 1015 No Significant change. Runway 22: Wet or puddles, 1-10% contamination with 2mm, friction coefficient 0.65. UARR 250200Z 22001MPS CAVOK 03/02 Q1015 R22/210265 NOSIG RMK QFE757/1010
VFR 3°C / 2°C 190º 6kt >10km - Clouds and Visibility OK 1015 No Significant change. Runway 22: Wet or puddles, 1-10% contamination with 2mm, friction coefficient 0.65. UARR 250130Z 19003MPS CAVOK 03/02 Q1015 R22/210265 NOSIG RMK QFE757/1010
VFR 3°C / 2°C 190º 4kt >10km - Clouds and Visibility OK 1015 No Significant change. Runway 22: Wet or puddles, 1-10% contamination with 2mm, friction coefficient 0.65. UARR 250100Z 19002MPS CAVOK 03/02 Q1015 R22/210265 NOSIG RMK QFE757/1010
VFR 3°C / 2°C 180º 4kt >10km - Clouds and Visibility OK 1015 No Significant change. Runway 22: Wet or puddles, 1-10% contamination with 2mm, friction coefficient 0.65. UARR 250030Z 18002MPS CAVOK 03/02 Q1015 R22/210265 NOSIG RMK QFE757/1010
VFR 3°C / 2°C 180º 6kt >10km - Clouds and Visibility OK 1015 No Significant change. Runway 22: Wet or puddles, 1-10% contamination with 2mm, friction coefficient 0.65. UARR 250000Z 18003MPS CAVOK 03/02 Q1015 R22/210265 NOSIG RMK QFE758/1010
VFR 3°C / 2°C 170º 6kt >10km - Clouds and Visibility OK 1015 No Significant change. Runway 22: Wet or puddles, 1-10% contamination with 2mm, friction coefficient 0.65. UARR 242330Z 17003MPS CAVOK 03/02 Q1015 R22/210265 NOSIG RMK QFE758/1010
VFR 3°C / 2°C 180º 4kt >10km - Clouds and Visibility OK 1016 No Significant change. Runway 22: Wet or puddles, 1-10% contamination with 2mm, friction coefficient 0.65. UARR 242300Z 18002MPS CAVOK 03/02 Q1016 R22/210265 NOSIG RMK QFE758/1011
VFR 3°C / 2°C 180º 6kt >10km - Clouds and Visibility OK 1016 No Significant change. Runway 22: Wet or puddles, 1-10% contamination with 2mm, friction coefficient 0.65. UARR 242230Z 18003MPS CAVOK 03/02 Q1016 R22/210265 NOSIG RMK QFE758/1011
VFR 2°C / 2°C 210º 4kt >10km - Clouds and Visibility OK 1016 No Significant change. Runway 22: Wet or puddles, 1-10% contamination with 2mm, friction coefficient 0.65. UARR 242200Z 21002MPS CAVOK 02/02 Q1016 R22/210265 NOSIG RMK QFE758/1011
VFR 3°C / 2°C variable 2kt >10km - Clouds and Visibility OK 1016 No Significant change. Runway 22: Wet or puddles, 1-10% contamination with 2mm, friction coefficient 0.65. UARR 242130Z VRB01MPS CAVOK 03/02 Q1016 R22/210265 NOSIG RMK QFE758/1011
VFR 3°C / 2°C 280º 4kt >10km - Clouds and Visibility OK 1016 No Significant change. Runway 22: Wet or puddles, 1-10% contamination with 2mm, friction coefficient 0.65. UARR 242100Z 28002MPS CAVOK 03/02 Q1016 R22/210265 NOSIG RMK QFE758/1011
VFR 3°C / 2°C 210º 4kt >10km - Clouds and Visibility OK 1016 No Significant change. Runway 22: Wet or puddles, 1-10% contamination with 2mm, friction coefficient 0.65. UARR 242030Z 21002MPS CAVOK 03/02 Q1016 R22/210265 NOSIG RMK QFE758/1011
VFR 2°C / 1°C 170º 4kt >10km - Clouds and Visibility OK 1016 No Significant change. Runway 22: Wet or puddles, 1-10% contamination with 2mm, friction coefficient 0.65. UARR 242000Z 17002MPS CAVOK 02/01 Q1016 R22/210265 NOSIG RMK QFE758/1011
VFR 2°C / 1°C variable 2kt >10km - Clouds and Visibility OK 1016 No Significant change. Runway 22: Wet or puddles, 1-10% contamination with 2mm, friction coefficient 0.65. UARR 241930Z VRB01MPS CAVOK 02/01 Q1016 R22/210265 NOSIG RMK QFE758/1011
VFR 3°C / 1°C 250º variable 220º to 280º 4kt >10km - Clouds and Visibility OK 1016 No Significant change. Runway 22: Wet or puddles, 1-10% contamination with 2mm, friction coefficient 0.65. UARR 241900Z 25002MPS 220V280 CAVOK 03/01 Q1016 R22/210265 NOSIG RMK QFE758/1011
VFR 2°C / 1°C 220º 2kt >10km - Clouds and Visibility OK 1016 No Significant change. Runway 22: Wet or puddles, 1-10% contamination with 2mm, friction coefficient 0.65. UARR 241830Z 22001MPS CAVOK 02/01 Q1016 R22/210265 NOSIG RMK QFE758/1011
VFR 2°C / 0°C 220º 2kt >10km - Clouds and Visibility OK 1016 No Significant change. Runway 22: Wet or puddles, 1-10% contamination with 2mm, friction coefficient 0.65. UARR 241800Z 22001MPS CAVOK 02/00 Q1016 R22/210265 NOSIG RMK QFE759/1012
VFR 2°C / 1°C 260º 4kt >10km - Clouds and Visibility OK 1016 No Significant change. Runway 22: Wet or puddles, 1-10% contamination with 2mm, friction coefficient 0.65. UARR 241730Z 26002MPS CAVOK 02/01 Q1016 R22/210265 NOSIG RMK QFE759/1012
VFR 4°C / 1°C 270º 4kt >10km - Clouds and Visibility OK 1016 No Significant change. Runway 22: Wet or puddles, 1-10% contamination with 2mm, friction coefficient 0.65. UARR 241700Z 27002MPS CAVOK 04/01 Q1016 R22/210265 NOSIG RMK QFE758/1011
VFR 5°C / 2°C 270º 4kt >10km - Clouds and Visibility OK 1016 No Significant change. Runway 22: Wet or puddles, 1-10% contamination with 2mm, friction coefficient 0.65. UARR 241630Z 27002MPS CAVOK 05/02 Q1016 R22/210265 NOSIG RMK QFE758/1011
VFR 5°C / 2°C 270º 6kt >10km - Clouds and Visibility OK 1016 No Significant change. Runway 22: Wet or puddles, 1-10% contamination with 2mm, friction coefficient 0.65. UARR 241600Z 27003MPS CAVOK 05/02 Q1016 R22/210265 NOSIG RMK QFE758/1011

VFR

2°C / 2°C

[أكثر]
رياح 230º 4kt
مجال رؤية >10km
حالة الطقس -
غيوم Clouds and Visibility OK
الضغط 1015
تغيير No Significant change
خام UARR 250330Z 23002MPS CAVOK 02/02 Q1015 R22/CLRD70 NOSIG RMK QFE757/1010

VFR

2°C / 2°C

[أكثر]
رياح 200º 6kt
مجال رؤية >10km
حالة الطقس -
غيوم Clouds and Visibility OK
الضغط 1015
تغيير No Significant change
خام UARR 250300Z 20003MPS CAVOK 02/02 Q1015 R22/CLRD70 NOSIG RMK QFE757/1010

VFR

3°C / 2°C

[أكثر]
رياح 240º 4kt
مجال رؤية >10km
حالة الطقس -
غيوم Clouds and Visibility OK
الضغط 1015
تغيير No Significant change. Runway 22: Wet or puddles, 1-10% contamination with 2mm, friction coefficient 0.65.
خام UARR 250230Z 24002MPS CAVOK 03/02 Q1015 R22/210265 NOSIG RMK QFE757/1010

VFR

3°C / 2°C

[أكثر]
رياح 220º 2kt
مجال رؤية >10km
حالة الطقس -
غيوم Clouds and Visibility OK
الضغط 1015
تغيير No Significant change. Runway 22: Wet or puddles, 1-10% contamination with 2mm, friction coefficient 0.65.
خام UARR 250200Z 22001MPS CAVOK 03/02 Q1015 R22/210265 NOSIG RMK QFE757/1010

VFR

3°C / 2°C

[أكثر]
رياح 190º 6kt
مجال رؤية >10km
حالة الطقس -
غيوم Clouds and Visibility OK
الضغط 1015
تغيير No Significant change. Runway 22: Wet or puddles, 1-10% contamination with 2mm, friction coefficient 0.65.
خام UARR 250130Z 19003MPS CAVOK 03/02 Q1015 R22/210265 NOSIG RMK QFE757/1010

VFR

3°C / 2°C

[أكثر]
رياح 190º 4kt
مجال رؤية >10km
حالة الطقس -
غيوم Clouds and Visibility OK
الضغط 1015
تغيير No Significant change. Runway 22: Wet or puddles, 1-10% contamination with 2mm, friction coefficient 0.65.
خام UARR 250100Z 19002MPS CAVOK 03/02 Q1015 R22/210265 NOSIG RMK QFE757/1010

VFR

3°C / 2°C

[أكثر]
رياح 180º 4kt
مجال رؤية >10km
حالة الطقس -
غيوم Clouds and Visibility OK
الضغط 1015
تغيير No Significant change. Runway 22: Wet or puddles, 1-10% contamination with 2mm, friction coefficient 0.65.
خام UARR 250030Z 18002MPS CAVOK 03/02 Q1015 R22/210265 NOSIG RMK QFE757/1010

VFR

3°C / 2°C

[أكثر]
رياح 180º 6kt
مجال رؤية >10km
حالة الطقس -
غيوم Clouds and Visibility OK
الضغط 1015
تغيير No Significant change. Runway 22: Wet or puddles, 1-10% contamination with 2mm, friction coefficient 0.65.
خام UARR 250000Z 18003MPS CAVOK 03/02 Q1015 R22/210265 NOSIG RMK QFE758/1010

VFR

3°C / 2°C

[أكثر]
رياح 170º 6kt
مجال رؤية >10km
حالة الطقس -
غيوم Clouds and Visibility OK
الضغط 1015
تغيير No Significant change. Runway 22: Wet or puddles, 1-10% contamination with 2mm, friction coefficient 0.65.
خام UARR 242330Z 17003MPS CAVOK 03/02 Q1015 R22/210265 NOSIG RMK QFE758/1010

VFR

3°C / 2°C

[أكثر]
رياح 180º 4kt
مجال رؤية >10km
حالة الطقس -
غيوم Clouds and Visibility OK
الضغط 1016
تغيير No Significant change. Runway 22: Wet or puddles, 1-10% contamination with 2mm, friction coefficient 0.65.
خام UARR 242300Z 18002MPS CAVOK 03/02 Q1016 R22/210265 NOSIG RMK QFE758/1011

VFR

3°C / 2°C

[أكثر]
رياح 180º 6kt
مجال رؤية >10km
حالة الطقس -
غيوم Clouds and Visibility OK
الضغط 1016
تغيير No Significant change. Runway 22: Wet or puddles, 1-10% contamination with 2mm, friction coefficient 0.65.
خام UARR 242230Z 18003MPS CAVOK 03/02 Q1016 R22/210265 NOSIG RMK QFE758/1011

VFR

2°C / 2°C

[أكثر]
رياح 210º 4kt
مجال رؤية >10km
حالة الطقس -
غيوم Clouds and Visibility OK
الضغط 1016
تغيير No Significant change. Runway 22: Wet or puddles, 1-10% contamination with 2mm, friction coefficient 0.65.
خام UARR 242200Z 21002MPS CAVOK 02/02 Q1016 R22/210265 NOSIG RMK QFE758/1011

VFR

3°C / 2°C

[أكثر]
رياح variable 2kt
مجال رؤية >10km
حالة الطقس -
غيوم Clouds and Visibility OK
الضغط 1016
تغيير No Significant change. Runway 22: Wet or puddles, 1-10% contamination with 2mm, friction coefficient 0.65.
خام UARR 242130Z VRB01MPS CAVOK 03/02 Q1016 R22/210265 NOSIG RMK QFE758/1011

VFR

3°C / 2°C

[أكثر]
رياح 280º 4kt
مجال رؤية >10km
حالة الطقس -
غيوم Clouds and Visibility OK
الضغط 1016
تغيير No Significant change. Runway 22: Wet or puddles, 1-10% contamination with 2mm, friction coefficient 0.65.
خام UARR 242100Z 28002MPS CAVOK 03/02 Q1016 R22/210265 NOSIG RMK QFE758/1011

VFR

3°C / 2°C

[أكثر]
رياح 210º 4kt
مجال رؤية >10km
حالة الطقس -
غيوم Clouds and Visibility OK
الضغط 1016
تغيير No Significant change. Runway 22: Wet or puddles, 1-10% contamination with 2mm, friction coefficient 0.65.
خام UARR 242030Z 21002MPS CAVOK 03/02 Q1016 R22/210265 NOSIG RMK QFE758/1011

VFR

2°C / 1°C

[أكثر]
رياح 170º 4kt
مجال رؤية >10km
حالة الطقس -
غيوم Clouds and Visibility OK
الضغط 1016
تغيير No Significant change. Runway 22: Wet or puddles, 1-10% contamination with 2mm, friction coefficient 0.65.
خام UARR 242000Z 17002MPS CAVOK 02/01 Q1016 R22/210265 NOSIG RMK QFE758/1011

VFR

2°C / 1°C

[أكثر]
رياح variable 2kt
مجال رؤية >10km
حالة الطقس -
غيوم Clouds and Visibility OK
الضغط 1016
تغيير No Significant change. Runway 22: Wet or puddles, 1-10% contamination with 2mm, friction coefficient 0.65.
خام UARR 241930Z VRB01MPS CAVOK 02/01 Q1016 R22/210265 NOSIG RMK QFE758/1011

VFR

3°C / 1°C

[أكثر]
رياح 250º variable 220º to 280º 4kt
مجال رؤية >10km
حالة الطقس -
غيوم Clouds and Visibility OK
الضغط 1016
تغيير No Significant change. Runway 22: Wet or puddles, 1-10% contamination with 2mm, friction coefficient 0.65.
خام UARR 241900Z 25002MPS 220V280 CAVOK 03/01 Q1016 R22/210265 NOSIG RMK QFE758/1011

VFR

2°C / 1°C

[أكثر]
رياح 220º 2kt
مجال رؤية >10km
حالة الطقس -
غيوم Clouds and Visibility OK
الضغط 1016
تغيير No Significant change. Runway 22: Wet or puddles, 1-10% contamination with 2mm, friction coefficient 0.65.
خام UARR 241830Z 22001MPS CAVOK 02/01 Q1016 R22/210265 NOSIG RMK QFE758/1011

VFR

2°C / 0°C

[أكثر]
رياح 220º 2kt
مجال رؤية >10km
حالة الطقس -
غيوم Clouds and Visibility OK
الضغط 1016
تغيير No Significant change. Runway 22: Wet or puddles, 1-10% contamination with 2mm, friction coefficient 0.65.
خام UARR 241800Z 22001MPS CAVOK 02/00 Q1016 R22/210265 NOSIG RMK QFE759/1012

VFR

2°C / 1°C

[أكثر]
رياح 260º 4kt
مجال رؤية >10km
حالة الطقس -
غيوم Clouds and Visibility OK
الضغط 1016
تغيير No Significant change. Runway 22: Wet or puddles, 1-10% contamination with 2mm, friction coefficient 0.65.
خام UARR 241730Z 26002MPS CAVOK 02/01 Q1016 R22/210265 NOSIG RMK QFE759/1012

VFR

4°C / 1°C

[أكثر]
رياح 270º 4kt
مجال رؤية >10km
حالة الطقس -
غيوم Clouds and Visibility OK
الضغط 1016
تغيير No Significant change. Runway 22: Wet or puddles, 1-10% contamination with 2mm, friction coefficient 0.65.
خام UARR 241700Z 27002MPS CAVOK 04/01 Q1016 R22/210265 NOSIG RMK QFE758/1011

VFR

5°C / 2°C

[أكثر]
رياح 270º 4kt
مجال رؤية >10km
حالة الطقس -
غيوم Clouds and Visibility OK
الضغط 1016
تغيير No Significant change. Runway 22: Wet or puddles, 1-10% contamination with 2mm, friction coefficient 0.65.
خام UARR 241630Z 27002MPS CAVOK 05/02 Q1016 R22/210265 NOSIG RMK QFE758/1011

VFR

5°C / 2°C

[أكثر]
رياح 270º 6kt
مجال رؤية >10km
حالة الطقس -
غيوم Clouds and Visibility OK
الضغط 1016
تغيير No Significant change. Runway 22: Wet or puddles, 1-10% contamination with 2mm, friction coefficient 0.65.
خام UARR 241600Z 27003MPS CAVOK 05/02 Q1016 R22/210265 NOSIG RMK QFE758/1011

انقر ل51.15°شمال 51.54°شرق (UARR)

From till


From till Wind variable 4kt. Visibility 10km or more. Broken Clouds 3300ft.
Temporarly from till Visibility 3100m. Mist . Broken Clouds 1100ft.
Becoming from till Wind 300º 10kt. Gust 23kt. Visibility 10km or more. Broken Clouds 3300ft.
Temporarly from till Light Showers Rain . Broken Clouds 1100ft. Broken Clouds 3000ft.

خام: TAF UARR 250200Z 2503/2512 VRB02MPS 9999 BKN033CB TEMPO 2503/2506 3100 BR BKN011 BECMG 2506/2508 30005G12MPS TEMPO 2506/2512 -SHRA BKN011 BKN030CB

صور الأقمار الصناعية الملتقطة و الأمطار حالياً ل51.15°شمال 51.54°شرق

المؤشر يدل على موقع 51.15°شمال 51.54°شرق. [أكثر]

تجمع صورة الأقمار الصناعية في الوقت الفعلي بين الضوء المرئي أثناء النهار والأشعة تحت الحمراء أثناء الليل. لا تبدو الصورة مظلمة ليلاً، لأن الأشعة تحت الحمراء يمكنها الكشف عن الاختلافات في درجة الحرارة. لسوء الحظ ، يصعب التمييز بين السحب المنخفضة والضباب ودرجات حرارة الأرض ، وبالتالي يمكن أن تكون الصور غير مرئية تقريبًا أثناء الليل. يتم تحديث صور الأقمار الصناعية Meteosat الخاصة بأوروبا في الوقت الفعلي كل 5 دقائق، بينما يتم تحديث صور GOES-16 / GOES-17 (أمريكا الشمالية والجنوبية) و Himawari (آسيا) كل 10 دقائق.

حقوق النسخ 2021 EUMETSAT / meteoblue. / حقوق النسخ 2021 meteoblue

رادار وهطول الأمطار التنبؤ الآني ل51.15°شمال 51.54°شرق

رذاذ
ضوء
معتدل
ثقيل
ثقيل جدا
وابل

مؤشر المكان يشير الى 51.15°شمال 51.54°شرق. تظهر في هذه الرسوم المتحركة هطول الامطار بالرادار للساعة الماضية, و توقعات 1h. رذاذ أو تساقط ثلوج خفيف قد يكون غير مرئي للرادار. كثافة هطول الأمطار مرمزة بالألوان وتتراوح من الأزرق الفاتح إلى البرتقالي.